Time;durP1;ratioP1;P1;durP2;ratioP2;P2;SDS_P1;SDS_P2;PMS_P1;PMS_P2;Temp;Humidity;BMP_temperature;BMP_pressure;BME280_temperature;BME280_humidity;BME280_pressure;Samples;Min_cycle;Max_cycle;Signal;HPM_P1;HPM_P2
2021/01/28 00:02:21;;;;;;;20.35;2.60;;;13.30;95.20;;;;;;4977888;28;20570;-73
2021/01/28 00:04:46;;;;;;;19.40;1.80;;;13.30;95.20;;;;;;4977828;28;20041;-73
2021/01/28 00:07:12;;;;;;;17.15;1.70;;;13.20;95.20;;;;;;4977564;28;20042;-73
2021/01/28 00:09:38;;;;;;;20.17;1.40;;;13.10;95.20;;;;;;4977843;28;20514;-73
2021/01/28 00:12:04;;;;;;;15.70;1.35;;;13.20;95.30;;;;;;4977825;28;20038;-73
2021/01/28 00:14:30;;;;;;;16.65;1.27;;;13.20;95.40;;;;;;4977833;28;20106;-73
2021/01/28 00:16:56;;;;;;;12.25;1.10;;;13.10;95.30;;;;;;4977652;28;20509;-73
2021/01/28 00:19:22;;;;;;;13.38;1.60;;;13.30;95.30;;;;;;4977176;28;20132;-73
2021/01/28 00:21:48;;;;;;;13.32;1.60;;;13.30;95.40;;;;;;4976335;28;20486;-73
2021/01/28 00:24:14;;;;;;;19.13;1.90;;;13.10;95.40;;;;;;4977226;28;20047;-73
2021/01/28 00:26:40;;;;;;;19.13;2.30;;;13.30;95.40;;;;;;4977283;28;20508;-73
2021/01/28 00:29:06;;;;;;;20.90;2.40;;;13.30;95.40;;;;;;4977789;28;20082;-73
2021/01/28 00:31:32;;;;;;;20.00;1.92;;;13.20;95.30;;;;;;4977577;28;20398;-73
2021/01/28 00:33:58;;;;;;;13.95;1.55;;;13.20;95.40;;;;;;4977278;28;20047;-73
2021/01/28 00:36:24;;;;;;;10.65;1.63;;;13.10;95.40;;;;;;4977010;28;20394;-73
2021/01/28 00:38:49;;;;;;;10.20;1.30;;;13.20;95.50;;;;;;4976843;28;20047;-73
2021/01/28 00:41:15;;;;;;;13.38;1.30;;;13.10;95.40;;;;;;4976663;28;20530;-73
2021/01/28 00:43:41;;;;;;;11.85;1.15;;;13.20;95.50;;;;;;4976898;28;20046;-73
2021/01/28 00:46:07;;;;;;;13.93;1.80;;;13.20;95.60;;;;;;4977067;28;20043;-73
2021/01/28 00:48:33;;;;;;;11.98;1.50;;;13.10;95.80;;;;;;4976881;28;20110;-73
2021/01/28 00:51:02;;;;;;;11.90;1.30;;;13.10;95.50;;;;;;4976195;28;20042;-73
2021/01/28 00:53:27;;;;;;;9.75;1.35;;;13.40;95.70;;;;;;4976460;28;20066;-73
2021/01/28 00:55:53;;;;;;;10.07;0.98;;;13.10;95.60;;;;;;4976553;28;20039;-73
2021/01/28 00:58:22;;;;;;;14.75;1.50;;;13.10;95.60;;;;;;4976888;28;20043;-73
2021/01/28 01:00:48;;;;;;;14.23;1.05;;;13.30;95.60;;;;;;4976662;28;20034;-73
2021/01/28 01:03:16;;;;;;;6.53;0.50;;;13.20;95.60;;;;;;4977095;28;20518;-73
2021/01/28 01:05:44;;;;;;;7.18;0.60;;;13.20;95.70;;;;;;4976408;28;20125;-73
2021/01/28 01:08:21;;;;;;;4.28;0.55;;;13.10;95.70;;;;;;4976438;28;20514;-73
2021/01/28 01:10:49;;;;;;;6.50;0.45;;;13.20;95.60;;;;;;4976785;28;20562;-73
2021/01/28 01:13:19;;;;;;;5.97;0.40;;;13.30;95.60;;;;;;4976364;28;20049;-73
2021/01/28 01:15:45;;;;;;;5.28;0.38;;;13.20;95.60;;;;;;4976452;28;20344;-73
2021/01/28 01:18:18;;;;;;;6.47;0.32;;;13.20;95.60;;;;;;4976363;28;20096;-72
2021/01/28 01:20:45;;;;;;;4.40;0.20;;;13.20;95.70;;;;;;4976163;28;20046;-73
2021/01/28 01:23:11;;;;;;;2.97;0.20;;;13.30;95.60;;;;;;4976045;28;20042;-73
2021/01/28 01:25:37;;;;;;;2.65;0.20;;;13.30;95.60;;;;;;4976192;28;20045;-73
2021/01/28 01:28:04;;;;;;;3.40;0.13;;;13.40;95.70;;;;;;4975903;28;20050;-73
2021/01/28 01:30:30;;;;;;;3.22;0.22;;;13.20;95.60;;;;;;4976235;28;20098;-73
2021/01/28 01:32:55;;;;;;;3.22;0.10;;;13.30;95.70;;;;;;4976039;28;20097;-73
2021/01/28 01:35:23;;;;;;;2.42;0.10;;;13.20;95.70;;;;;;4975956;28;20027;-73
2021/01/28 01:37:50;;;;;;;2.45;0.22;;;13.20;95.70;;;;;;4975850;28;20042;-73
2021/01/28 01:40:39;;;;;;;2.42;0.20;;;13.40;95.80;;;;;;4976294;28;20062;-73
2021/01/28 01:43:07;;;;;;;2.03;0.10;;;13.40;95.80;;;;;;4975310;28;20145;-73
2021/01/28 01:45:40;;;;;;;1.45;0.10;;;13.00;95.70;;;;;;4975830;28;20043;-73
2021/01/28 01:48:09;;;;;;;3.08;0.30;;;13.20;95.80;;;;;;4975520;28;20077;-74
2021/01/28 01:50:37;;;;;;;2.40;0.13;;;13.20;95.80;;;;;;4975354;28;20494;-73
2021/01/28 01:53:06;;;;;;;3.22;0.15;;;13.40;95.90;;;;;;4975399;28;20039;-73
2021/01/28 01:55:33;;;;;;;3.80;0.10;;;13.20;95.80;;;;;;4975328;28;20090;-73
2021/01/28 01:58:03;;;;;;;4.30;0.20;;;13.10;95.70;;;;;;4975775;28;20046;-73
2021/01/28 02:00:29;;;;;;;1.75;0.10;;;13.10;95.80;;;;;;4975549;28;20116;-73
2021/01/28 02:03:01;;;;;;;3.55;0.10;;;13.10;95.90;;;;;;4975546;28;20038;-73
2021/01/28 02:05:31;;;;;;;2.47;0.10;;;13.30;96.00;;;;;;4975353;28;20364;-73
2021/01/28 02:07:58;;;;;;;2.67;0.10;;;13.30;96.00;;;;;;4975762;28;20038;-73
2021/01/28 02:10:25;;;;;;;2.13;0.10;;;13.20;96.00;;;;;;4975672;28;20051;-73
2021/01/28 02:12:54;;;;;;;4.20;0.17;;;13.30;96.00;;;;;;4975220;28;20046;-73
2021/01/28 02:15:24;;;;;;;3.13;0.10;;;13.30;96.00;;;;;;4975866;28;20573;-73
2021/01/28 02:17:53;;;;;;;2.13;0.20;;;13.20;96.00;;;;;;4975533;28;20039;-73
2021/01/28 02:20:25;;;;;;;4.97;0.28;;;13.30;96.10;;;;;;4975651;28;20046;-73
2021/01/28 02:23:01;;;;;;;5.00;0.20;;;13.30;96.30;;;;;;4975384;28;20050;-73
2021/01/28 02:25:30;;;;;;;5.65;0.43;;;13.40;96.10;;;;;;4975328;28;20035;-73
2021/01/28 02:28:00;;;;;;;7.07;0.38;;;13.30;96.10;;;;;;4975123;28;20042;-73
2021/01/28 02:30:28;;;;;;;6.55;0.50;;;13.30;96.10;;;;;;4975118;28;20049;-73
2021/01/28 02:32:54;;;;;;;7.80;0.60;;;13.20;96.10;;;;;;4975269;28;20537;-73
2021/01/28 02:35:24;;;;;;;8.88;0.80;;;13.30;96.20;;;;;;4975370;28;20039;-73
2021/01/28 02:37:50;;;;;;;8.70;0.38;;;13.20;96.20;;;;;;4974657;28;20031;-73
2021/01/28 02:40:20;;;;;;;5.50;0.60;;;13.40;96.20;;;;;;4975368;28;20530;-73
2021/01/28 02:42:46;;;;;;;8.07;0.65;;;13.30;96.20;;;;;;4975364;28;20129;-73
2021/01/28 02:45:25;;;;;;;10.30;0.70;;;13.20;96.10;;;;;;4975105;28;20127;-73
2021/01/28 02:47:56;;;;;;;7.10;0.70;;;13.10;96.20;;;;;;4975199;28;20055;-73
2021/01/28 02:50:22;;;;;;;7.32;0.60;;;13.40;96.20;;;;;;4974778;28;20089;-73
2021/01/28 02:52:53;;;;;;;7.93;0.80;;;13.40;96.20;;;;;;4974623;28;20125;-73
2021/01/28 02:55:19;;;;;;;6.25;0.47;;;13.20;96.30;;;;;;4975176;28;20126;-72
2021/01/28 02:57:44;;;;;;;8.90;0.47;;;13.30;96.20;;;;;;4974978;28;20067;-73
2021/01/28 03:00:14;;;;;;;9.38;0.77;;;13.20;96.30;;;;;;4974797;28;20050;-73
2021/01/28 03:02:39;;;;;;;11.93;0.90;;;13.10;96.30;;;;;;4975133;28;20069;-73
2021/01/28 03:05:06;;;;;;;14.25;1.00;;;13.10;96.40;;;;;;4978110;28;20502;-73
2021/01/28 03:07:32;;;;;;;9.88;1.10;;;13.20;96.40;;;;;;4978755;28;20039;-73
2021/01/28 03:09:57;;;;;;;13.90;1.40;;;13.10;96.40;;;;;;4977489;28;20587;-72
2021/01/28 03:12:23;;;;;;;7.05;0.85;;;13.50;96.50;;;;;;4978518;28;20074;-73
2021/01/28 03:14:49;;;;;;;11.85;1.10;;;13.40;96.40;;;;;;4978687;28;20055;-73
2021/01/28 03:17:15;;;;;;;16.80;1.60;;;13.30;96.50;;;;;;4978582;28;20038;-73
2021/01/28 03:19:42;;;;;;;17.13;2.22;;;13.30;96.50;;;;;;4978624;28;20507;-74
2021/01/28 03:22:08;;;;;;;12.68;1.75;;;13.30;96.50;;;;;;4978510;28;20046;-73
2021/01/28 03:24:33;;;;;;;19.40;2.30;;;13.20;96.60;;;;;;4978275;28;20135;-73
2021/01/28 03:27:00;;;;;;;24.02;2.88;;;13.30;96.60;;;;;;4978271;28;20502;-73
2021/01/28 03:29:25;;;;;;;25.10;2.80;;;13.40;96.60;;;;;;4978332;28;20047;-73
2021/01/28 03:31:51;;;;;;;21.73;2.67;;;13.30;96.60;;;;;;4978013;28;20038;-73
2021/01/28 03:34:17;;;;;;;21.90;2.88;;;13.30;96.60;;;;;;4978317;28;20043;-73
2021/01/28 03:36:43;;;;;;;22.90;2.67;;;13.30;96.70;;;;;;4977687;28;20504;-73
2021/01/28 03:39:09;;;;;;;25.60;2.78;;;13.30;96.70;;;;;;4977997;28;20050;-73
2021/01/28 03:41:35;;;;;;;22.77;2.50;;;13.30;96.70;;;;;;4978252;28;20042;-73
2021/01/28 03:44:00;;;;;;;20.27;2.40;;;13.00;96.60;;;;;;4978275;28;20050;-73
2021/01/28 03:46:27;;;;;;;23.58;2.90;;;13.50;96.60;;;;;;4978112;28;20038;-73
2021/01/28 03:48:53;;;;;;;21.50;2.15;;;13.50;96.60;;;;;;4977666;28;20050;-74
2021/01/28 03:51:19;;;;;;;15.40;1.60;;;13.50;96.60;;;;;;4977696;28;20046;-73
2021/01/28 03:53:44;;;;;;;14.00;1.42;;;13.50;96.60;;;;;;4977837;28;20517;-73
2021/01/28 03:56:10;;;;;;;12.93;1.30;;;13.30;96.50;;;;;;4977853;28;20070;-73
2021/01/28 03:58:36;;;;;;;13.88;1.30;;;13.50;96.50;;;;;;4977827;28;20503;-73
2021/01/28 04:01:03;;;;;;;12.70;0.82;;;13.40;96.50;;;;;;4977965;28;20070;-72
2021/01/28 04:03:29;;;;;;;8.75;0.70;;;13.60;96.60;;;;;;4977909;28;20070;-73
2021/01/28 04:05:54;;;;;;;8.55;0.38;;;13.40;96.50;;;;;;4977672;28;20066;-73
2021/01/28 04:08:20;;;;;;;6.57;0.50;;;13.30;96.50;;;;;;4977529;28;20039;-73
2021/01/28 04:10:46;;;;;;;6.55;0.30;;;13.30;96.60;;;;;;4977482;28;20115;-73
2021/01/28 04:13:12;;;;;;;5.95;0.30;;;13.20;96.60;;;;;;4976629;28;20038;-73
2021/01/28 04:15:38;;;;;;;5.75;0.45;;;13.50;96.70;;;;;;4976967;28;20062;-73
2021/01/28 04:18:04;;;;;;;4.78;0.30;;;13.30;96.60;;;;;;4977696;28;20050;-73
2021/01/28 04:20:35;;;;;;;6.15;0.25;;;13.30;96.60;;;;;;4976484;28;20047;-73
2021/01/28 04:23:01;;;;;;;7.90;0.40;;;13.20;96.50;;;;;;4977189;28;20039;-73
2021/01/28 04:25:28;;;;;;;3.22;0.22;;;13.10;96.50;;;;;;4977493;28;20039;-73
2021/01/28 04:27:55;;;;;;;4.57;0.13;;;13.30;96.50;;;;;;4977136;28;20406;-73
2021/01/28 04:30:27;;;;;;;5.32;0.10;;;13.40;96.60;;;;;;4977429;28;20034;-73
2021/01/28 04:32:53;;;;;;;2.88;0.30;;;13.40;96.60;;;;;;4977601;28;20047;-73
2021/01/28 04:35:19;;;;;;;1.73;0.20;;;13.20;96.50;;;;;;4977409;28;20046;-73
2021/01/28 04:37:45;;;;;;;3.95;0.10;;;13.40;96.60;;;;;;4976959;28;20049;-73
2021/01/28 04:40:28;;;;;;;2.80;0.10;;;13.40;96.70;;;;;;4977367;28;20046;-73
2021/01/28 04:42:56;;;;;;;2.97;0.20;;;13.20;96.70;;;;;;4976940;28;20042;-74
2021/01/28 04:45:26;;;;;;;3.33;0.10;;;13.40;96.70;;;;;;4977255;28;20541;-74
2021/01/28 04:47:56;;;;;;;5.78;0.22;;;13.30;96.70;;;;;;4977368;28;20043;-74
2021/01/28 04:50:27;;;;;;;4.15;0.17;;;13.30;96.60;;;;;;4976490;28;20063;-73
2021/01/28 04:52:59;;;;;;;3.42;0.30;;;13.40;96.70;;;;;;4977059;28;20059;-73
2021/01/28 04:55:47;;;;;;;6.55;0.20;;;13.40;96.80;;;;;;4977117;28;20035;-73
2021/01/28 04:58:13;;;;;;;6.30;0.20;;;13.40;96.80;;;;;;4977101;28;20071;-73
2021/01/28 05:00:40;;;;;;;5.40;0.40;;;13.40;96.80;;;;;;4976555;28;20053;-73
2021/01/28 05:03:16;;;;;;;5.60;0.30;;;13.40;96.80;;;;;;4976316;28;20109;-73
2021/01/28 05:05:43;;;;;;;5.30;0.30;;;13.40;96.90;;;;;;4976370;28;20043;-73
2021/01/28 05:08:08;;;;;;;6.00;0.30;;;13.40;96.90;;;;;;4976608;28;20038;-73
2021/01/28 05:10:45;;;;;;;5.80;0.60;;;13.50;96.90;;;;;;4976536;28;20057;-73
2021/01/28 05:13:22;;;;;;;7.07;0.70;;;13.30;96.70;;;;;;4976708;28;20126;-73
2021/01/28 05:15:48;;;;;;;9.32;0.80;;;13.40;96.80;;;;;;4976591;28;20098;-73
2021/01/28 05:18:32;;;;;;;7.80;0.73;;;13.30;96.80;;;;;;4976425;28;20046;-73
2021/01/28 05:21:10;;;;;;;9.88;0.98;;;13.50;96.90;;;;;;4976101;28;20042;-73
2021/01/28 05:23:39;;;;;;;10.23;0.90;;;13.30;96.90;;;;;;4976400;28;20034;-73
2021/01/28 05:26:29;;;;;;;13.07;1.60;;;13.30;96.90;;;;;;4975313;28;20090;-74
2021/01/28 05:28:56;;;;;;;8.57;1.10;;;13.40;97.00;;;;;;4976174;28;20130;-73
2021/01/28 05:31:31;;;;;;;10.35;1.20;;;13.50;97.00;;;;;;4976412;28;20047;-74
2021/01/28 05:34:08;;;;;;;12.98;1.10;;;13.60;97.00;;;;;;4979968;28;20466;-73
2021/01/28 05:36:36;;;;;;;9.10;0.85;;;13.60;97.00;;;;;;4995058;28;20034;-73
2021/01/28 05:39:29;;;;;;;13.23;0.98;;;13.50;97.00;;;;;;4995318;28;20042;-73
2021/01/28 05:42:14;;;;;;;9.55;0.70;;;13.50;97.00;;;;;;4995126;28;20030;-73
2021/01/28 05:44:40;;;;;;;8.70;0.40;;;13.70;97.00;;;;;;4995499;28;20137;-73
2021/01/28 05:47:27;;;;;;;4.03;0.30;;;13.60;96.90;;;;;;4995527;28;20096;-73
2021/01/28 05:50:10;;;;;;;5.18;0.30;;;13.30;96.80;;;;;;4995413;28;20086;-73
2021/01/28 05:52:36;;;;;;;6.93;0.50;;;13.60;97.00;;;;;;4995275;28;20046;-73
2021/01/28 05:55:05;;;;;;;6.18;0.40;;;13.50;96.90;;;;;;4989969;28;20046;-73
2021/01/28 05:57:57;;;;;;;5.88;0.40;;;13.50;96.90;;;;;;4994763;28;20040;-73
2021/01/28 06:00:32;;;;;;;3.80;0.40;;;13.60;97.00;;;;;;4935812;28;20046;-73
2021/01/28 06:03:35;;;;;;;6.80;0.43;;;13.70;97.10;;;;;;4976300;28;20035;-73
2021/01/28 06:06:19;;;;;;;7.35;0.40;;;13.50;97.10;;;;;;4975692;28;20035;-74
2021/01/28 06:09:10;;;;;;;6.72;0.30;;;13.60;97.00;;;;;;4976350;28;20085;-73
2021/01/28 06:11:41;;;;;;;7.13;0.57;;;13.60;97.00;;;;;;4976025;28;20121;-73
2021/01/28 06:14:10;;;;;;;6.57;0.20;;;13.70;97.10;;;;;;4975592;28;20039;-73
2021/01/28 06:17:00;;;;;;;5.25;0.30;;;13.70;97.00;;;;;;4975274;28;20034;-73
2021/01/28 06:19:29;;;;;;;6.38;0.40;;;13.60;97.00;;;;;;4975770;28;20046;-73
2021/01/28 06:22:01;;;;;;;4.40;0.35;;;13.70;97.20;;;;;;4989438;28;20185;-74
2021/01/28 06:24:48;;;;;;;9.90;0.30;;;13.70;97.10;;;;;;4995001;28;20482;-74
2021/01/28 06:27:44;;;;;;;5.53;0.32;;;13.70;97.10;;;;;;4993927;28;20100;-73
2021/01/28 06:30:28;;;;;;;4.72;0.30;;;13.80;97.10;;;;;;4994053;28;20050;-74
2021/01/28 06:33:30;;;;;;;10.68;0.57;;;13.90;97.10;;;;;;4994754;28;20540;-74
2021/01/28 06:36:25;;;;;;;8.40;0.52;;;13.70;97.10;;;;;;4994866;28;20486;-74
2021/01/28 06:39:28;;;;;;;5.43;0.30;;;13.80;97.10;;;;;;4944933;28;20054;-73
2021/01/28 06:42:00;;;;;;;4.85;0.60;;;13.80;97.10;;;;;;4993627;28;20030;-74
2021/01/28 06:44:50;;;;;;;8.43;0.73;;;13.70;97.10;;;;;;4993364;28;20046;-72
2021/01/28 06:47:46;;;;;;;9.00;0.50;;;13.80;97.20;;;;;;4993790;28;20034;-72
2021/01/28 06:50:39;;;;;;;8.52;0.73;;;13.80;97.30;;;;;;4992757;28;20046;-72
2021/01/28 06:53:49;;;;;;;6.95;0.70;;;13.70;97.30;;;;;;4989271;28;20030;-73
2021/01/28 06:56:45;;;;;;;7.18;0.60;;;13.80;97.30;;;;;;4966886;28;20042;-73
2021/01/28 06:59:55;;;;;;;6.00;0.40;;;13.90;97.30;;;;;;4991908;28;20034;-72
2021/01/28 07:02:53;;;;;;;6.05;0.30;;;13.80;97.30;;;;;;4993050;28;20069;-72
2021/01/28 07:05:46;;;;;;;5.03;0.40;;;13.80;97.20;;;;;;4960723;28;20516;-72
2021/01/28 07:08:54;;;;;;;4.30;0.20;;;13.90;97.20;;;;;;4994781;28;20117;-73
2021/01/28 07:11:35;;;;;;;5.43;0.38;;;13.80;97.20;;;;;;4993838;28;20499;-73
2021/01/28 07:14:03;;;;;;;8.20;0.55;;;13.80;97.30;;;;;;4994416;28;20035;-72
2021/01/28 07:16:51;;;;;;;3.80;0.20;;;13.70;97.30;;;;;;4994090;28;20042;-73
2021/01/28 07:19:25;;;;;;;4.03;0.30;;;13.70;97.30;;;;;;4993827;28;20517;-70
2021/01/28 07:21:53;;;;;;;4.60;0.28;;;13.70;97.30;;;;;;4994255;28;20049;-73
2021/01/28 07:24:33;;;;;;;2.72;0.50;;;13.80;97.30;;;;;;4994292;28;20037;-76
2021/01/28 07:27:03;;;;;;;3.45;0.28;;;13.70;97.30;;;;;;4976609;28;20584;-71
2021/01/28 07:29:41;;;;;;;3.67;0.40;;;13.90;97.40;;;;;;4994379;28;20049;-73
2021/01/28 07:32:10;;;;;;;5.10;0.30;;;13.80;97.40;;;;;;4994343;28;20042;-74
2021/01/28 07:34:36;;;;;;;3.38;0.40;;;14.00;97.50;;;;;;4992039;28;20524;-74
2021/01/28 07:37:26;;;;;;;7.47;0.45;;;14.10;97.50;;;;;;4993751;28;20049;-74
2021/01/28 07:39:52;;;;;;;7.45;0.50;;;13.80;97.40;;;;;;4993797;28;20042;-73
2021/01/28 07:42:29;;;;;;;6.10;0.60;;;14.00;97.50;;;;;;4994342;28;20038;-73
2021/01/28 07:45:16;;;;;;;6.53;0.47;;;13.70;97.50;;;;;;4994205;28;20096;-74
2021/01/28 07:47:42;;;;;;;7.68;0.80;;;14.00;97.50;;;;;;4992811;28;20045;-75
2021/01/28 07:50:26;;;;;;;6.43;0.85;;;14.00;97.40;;;;;;4995745;28;20051;-74
2021/01/28 07:52:53;;;;;;;7.45;0.70;;;14.00;97.50;;;;;;4997309;28;20038;-74
2021/01/28 07:55:44;;;;;;;4.40;0.70;;;13.90;97.40;;;;;;4997416;28;20041;-74
2021/01/28 07:58:45;;;;;;;9.13;1.15;;;14.00;97.50;;;;;;4996254;28;21080;-73
2021/01/28 08:01:13;;;;;;;8.80;1.20;;;14.00;97.40;;;;;;4993675;28;20100;-73
2021/01/28 08:03:57;;;;;;;9.13;1.70;;;14.00;97.40;;;;;;4997177;28;20046;-73
2021/01/28 08:06:23;;;;;;;10.07;0.90;;;13.90;97.50;;;;;;4997246;28;20039;-74
2021/01/28 08:09:10;;;;;;;8.65;0.68;;;14.00;97.40;;;;;;4996989;28;20035;-73
2021/01/28 08:11:37;;;;;;;7.25;0.65;;;14.00;97.40;;;;;;4996701;28;20502;-73
2021/01/28 08:14:06;;;;;;;9.13;0.75;;;13.90;97.40;;;;;;4997093;28;20050;-73
2021/01/28 08:16:33;;;;;;;8.20;0.63;;;14.20;97.50;;;;;;4996443;28;20038;-73
2021/01/28 08:19:11;;;;;;;6.03;0.40;;;14.10;97.50;;;;;;4996713;28;20042;-73
2021/01/28 08:21:37;;;;;;;6.07;0.47;;;14.00;97.40;;;;;;4996819;28;20046;-73
2021/01/28 08:24:35;;;;;;;6.43;0.47;;;14.10;97.30;;;;;;4996499;28;20121;-73
2021/01/28 08:27:19;;;;;;;4.43;0.30;;;14.20;97.40;;;;;;4996414;28;20042;-73
2021/01/28 08:29:59;;;;;;;5.13;0.40;;;14.10;97.30;;;;;;4979440;28;20101;-73
2021/01/28 08:32:28;;;;;;;13.15;1.42;;;14.20;97.30;;;;;;4996624;28;20042;-74
2021/01/28 08:35:21;;;;;;;10.60;1.50;;;14.10;97.30;;;;;;4996513;28;20046;-73
2021/01/28 08:37:47;;;;;;;8.23;2.30;;;14.20;97.30;;;;;;4996297;28;20042;-74
2021/01/28 08:40:18;;;;;;;7.35;0.80;;;14.20;97.30;;;;;;4996991;28;20390;-74
2021/01/28 08:42:44;;;;;;;10.93;1.30;;;14.20;97.30;;;;;;4996432;28;20441;-74
2021/01/28 08:45:13;;;;;;;8.05;1.63;;;14.30;97.40;;;;;;4996177;28;20038;-73
2021/01/28 08:47:39;;;;;;;12.02;1.27;;;14.40;97.40;;;;;;4995915;28;20053;-73
2021/01/28 08:50:13;;;;;;;10.60;1.38;;;14.40;97.40;;;;;;4975244;28;20498;-73
2021/01/28 08:52:40;;;;;;;8.00;0.80;;;14.50;97.40;;;;;;4976657;28;20047;-74
2021/01/28 08:55:23;;;;;;;8.75;1.38;;;14.60;97.40;;;;;;4976546;28;20043;-74
2021/01/28 08:57:50;;;;;;;6.10;1.45;;;14.60;97.30;;;;;;4976708;28;20062;-74
2021/01/28 09:00:22;;;;;;;5.25;0.50;;;14.60;97.20;;;;;;4975946;28;20096;-73
2021/01/28 09:02:52;;;;;;;5.10;0.47;;;14.50;97.20;;;;;;4976536;28;20039;-74
2021/01/28 09:05:20;;;;;;;3.53;0.30;;;14.70;97.20;;;;;;4976294;28;20047;-73
2021/01/28 09:07:58;;;;;;;6.50;1.70;;;14.70;97.10;;;;;;4976362;28;20494;-74
2021/01/28 09:10:28;;;;;;;6.80;2.58;;;14.60;97.00;;;;;;4975979;28;20064;-73
2021/01/28 09:13:21;;;;;;;3.83;0.40;;;14.60;97.10;;;;;;4976147;28;20433;-73
2021/01/28 09:15:49;;;;;;;2.20;0.20;;;14.60;97.00;;;;;;4943275;28;20043;-74
2021/01/28 09:18:28;;;;;;;4.72;0.43;;;14.70;96.90;;;;;;4946128;28;20059;-74
2021/01/28 09:21:17;;;;;;;5.55;0.30;;;14.70;96.90;;;;;;4937713;29;20058;-74
2021/01/28 09:24:05;;;;;;;4.50;0.30;;;14.70;96.80;;;;;;4953269;29;20043;-74
2021/01/28 09:26:35;;;;;;;4.07;0.20;;;14.50;96.90;;;;;;4957223;28;20039;-74
2021/01/28 09:29:17;;;;;;;4.75;0.30;;;14.80;96.90;;;;;;4956596;28;20045;-74
2021/01/28 09:31:44;;;;;;;5.07;0.32;;;14.80;96.80;;;;;;4955963;28;20058;-74
2021/01/28 09:34:11;;;;;;;3.35;0.30;;;14.70;96.90;;;;;;4956021;28;20035;-74
2021/01/28 09:36:39;;;;;;;3.92;0.60;;;14.90;96.80;;;;;;4955757;28;20046;-74
2021/01/28 09:39:31;;;;;;;4.55;0.40;;;14.90;96.70;;;;;;4956228;28;20069;-74
2021/01/28 09:42:25;;;;;;;3.10;0.35;;;14.90;96.70;;;;;;4956393;28;20035;-74
2021/01/28 09:44:56;;;;;;;4.97;0.40;;;15.10;96.70;;;;;;4955523;28;20150;-73
2021/01/28 09:47:28;;;;;;;5.70;0.40;;;15.10;96.70;;;;;;4958916;28;20030;-74
2021/01/28 09:49:57;;;;;;;5.97;0.38;;;15.10;96.60;;;;;;4990026;28;20141;-73
2021/01/28 09:52:28;;;;;;;4.22;1.92;;;15.10;96.40;;;;;;4994794;28;20046;-73
2021/01/28 09:54:58;;;;;;;8.20;1.02;;;15.10;96.40;;;;;;4995515;28;20050;-74
2021/01/28 09:57:25;;;;;;;6.78;1.20;;;15.20;96.40;;;;;;4995214;28;20552;-74
2021/01/28 09:59:51;;;;;;;3.97;1.00;;;15.20;96.30;;;;;;4994978;28;20038;-74
2021/01/28 10:02:34;;;;;;;4.70;0.88;;;15.10;96.30;;;;;;4994741;28;20045;-74
2021/01/28 10:05:00;;;;;;;2.67;0.40;;;15.20;96.30;;;;;;4995137;28;20502;-74
2021/01/28 10:07:26;;;;;;;5.30;0.40;;;15.20;96.30;;;;;;4995046;28;20061;-72
2021/01/28 10:09:52;;;;;;;2.28;0.30;;;15.10;96.30;;;;;;4994716;28;20054;-72
2021/01/28 10:12:25;;;;;;;3.45;0.40;;;15.40;96.40;;;;;;4994306;28;20498;-73
2021/01/28 10:14:51;;;;;;;3.13;0.20;;;15.50;96.30;;;;;;4995187;28;20477;-74
2021/01/28 10:17:17;;;;;;;4.85;1.40;;;15.50;96.30;;;;;;4994633;28;20462;-74
2021/01/28 10:19:44;;;;;;;2.00;0.25;;;15.50;96.10;;;;;;4994432;28;20049;-74
2021/01/28 10:22:15;;;;;;;2.28;0.10;;;15.50;95.90;;;;;;4994742;28;20046;-74
2021/01/28 10:24:42;;;;;;;1.77;0.10;;;15.50;95.90;;;;;;4994665;28;20081;-74
2021/01/28 10:27:09;;;;;;;2.70;0.20;;;15.60;95.80;;;;;;4994577;28;20046;-73
2021/01/28 10:29:40;;;;;;;5.88;0.80;;;15.50;95.80;;;;;;4994779;28;20072;-74
2021/01/28 10:32:08;;;;;;;2.03;0.20;;;15.50;95.70;;;;;;4994849;28;20038;-74
2021/01/28 10:34:35;;;;;;;3.15;0.60;;;15.50;95.80;;;;;;4994869;28;20050;-74
2021/01/28 10:37:02;;;;;;;5.32;0.70;;;15.50;95.70;;;;;;4994755;28;20494;-73
2021/01/28 10:39:28;;;;;;;2.55;0.38;;;15.60;95.70;;;;;;4994396;28;20050;-74
2021/01/28 10:41:54;;;;;;;2.20;0.30;;;15.60;95.70;;;;;;4994263;28;20529;-73
2021/01/28 10:44:21;;;;;;;2.17;0.28;;;15.70;95.70;;;;;;4994540;28;20054;-74
2021/01/28 10:46:47;;;;;;;1.83;0.13;;;15.60;95.50;;;;;;4994208;28;20037;-74
2021/01/28 10:49:13;;;;;;;2.70;0.47;;;15.70;95.60;;;;;;4993936;28;20054;-74
2021/01/28 10:51:39;;;;;;;1.42;0.40;;;15.60;95.40;;;;;;4994524;28;20101;-74
2021/01/28 10:54:05;;;;;;;1.52;0.20;;;15.60;95.30;;;;;;4993757;28;20505;-73
2021/01/28 10:56:32;;;;;;;2.80;0.20;;;15.70;95.40;;;;;;4994444;28;20508;-74
2021/01/28 10:58:58;;;;;;;1.83;0.10;;;15.70;95.60;;;;;;4993982;28;20034;-73
2021/01/28 11:01:24;;;;;;;2.22;0.30;;;15.90;95.40;;;;;;4994182;28;20052;-74
2021/01/28 11:03:50;;;;;;;3.20;0.40;;;15.90;95.30;;;;;;4994156;28;20038;-74
2021/01/28 11:06:16;;;;;;;3.28;0.40;;;15.90;95.30;;;;;;4993939;28;20038;-74
2021/01/28 11:08:42;;;;;;;3.83;0.40;;;16.00;95.20;;;;;;4994644;28;20065;-74
2021/01/28 11:11:08;;;;;;;4.00;0.47;;;15.90;95.20;;;;;;4994273;28;20038;-74
2021/01/28 11:13:34;;;;;;;4.18;0.45;;;16.00;95.10;;;;;;4994268;28;20081;-74
2021/01/28 11:16:00;;;;;;;3.70;0.60;;;15.70;94.90;;;;;;4994412;28;20027;-73
2021/01/28 11:18:26;;;;;;;5.35;0.68;;;16.00;95.00;;;;;;4993845;28;20375;-73
2021/01/28 11:20:53;;;;;;;3.97;0.77;;;15.90;95.00;;;;;;5001377;28;20045;-74
2021/01/28 11:23:19;;;;;;;5.97;0.90;;;15.80;94.70;;;;;;5012597;28;20037;-73
2021/01/28 11:25:44;;;;;;;6.88;1.20;;;15.80;94.70;;;;;;4997641;28;20041;-73
2021/01/28 11:28:10;;;;;;;8.35;1.50;;;15.80;94.80;;;;;;5016535;28;20033;-74
2021/01/28 11:30:36;;;;;;;7.70;1.48;;;15.80;94.80;;;;;;5016208;28;20121;-74
2021/01/28 11:33:06;;;;;;;8.75;1.30;;;15.80;94.80;;;;;;5007951;28;20104;-74
2021/01/28 11:35:34;;;;;;;7.35;1.20;;;15.80;94.80;;;;;;4996875;28;20045;-74
2021/01/28 11:38:02;;;;;;;7.20;0.98;;;15.90;94.60;;;;;;4997918;28;20508;-73
2021/01/28 11:40:28;;;;;;;5.85;1.30;;;15.60;94.60;;;;;;4997754;28;20513;-74
2021/01/28 11:42:54;;;;;;;8.75;1.40;;;15.80;94.60;;;;;;4996952;28;20038;-73
2021/01/28 11:45:24;;;;;;;5.50;1.30;;;15.70;94.50;;;;;;4997308;28;20130;-73
2021/01/28 11:47:50;;;;;;;6.82;1.98;;;15.80;94.50;;;;;;4996718;28;20038;-73
2021/01/28 11:50:17;;;;;;;7.55;1.67;;;15.60;94.40;;;;;;4996697;28;20054;-73
2021/01/28 11:52:43;;;;;;;7.32;1.42;;;15.60;94.40;;;;;;4995177;28;20089;-72
2021/01/28 11:55:12;;;;;;;6.43;1.48;;;15.40;94.50;;;;;;4996763;28;20038;-72
2021/01/28 11:57:38;;;;;;;7.47;1.88;;;15.50;94.50;;;;;;4996766;28;20034;-73
2021/01/28 12:00:10;;;;;;;8.80;1.90;;;15.30;94.60;;;;;;4997528;28;20057;-73
2021/01/28 12:02:36;;;;;;;11.10;1.90;;;15.20;94.60;;;;;;4997291;28;20042;-74
2021/01/28 12:05:02;;;;;;;8.68;1.88;;;15.20;94.60;;;;;;4997276;28;20100;-73
2021/01/28 12:07:28;;;;;;;12.63;1.92;;;15.10;94.60;;;;;;4997010;28;20038;-73
2021/01/28 12:09:54;;;;;;;9.45;1.35;;;15.00;94.60;;;;;;4997201;28;20494;-73
2021/01/28 12:12:20;;;;;;;31.27;16.35;;;15.00;94.60;;;;;;4996908;28;20096;-73
2021/01/28 12:14:46;;;;;;;17.77;5.57;;;14.90;94.70;;;;;;4995663;28;20417;-73
2021/01/28 12:17:11;;;;;;;11.10;2.42;;;15.20;95.00;;;;;;4996491;28;20038;-73
2021/01/28 12:19:37;;;;;;;13.60;3.10;;;15.50;94.90;;;;;;4997114;28;20049;-73
2021/01/28 12:22:04;;;;;;;8.82;1.27;;;15.30;94.80;;;;;;4996221;28;20494;-73
2021/01/28 12:24:29;;;;;;;12.85;3.50;;;15.20;94.70;;;;;;4996290;28;20038;-73
2021/01/28 12:26:58;;;;;;;10.40;1.52;;;15.30;94.70;;;;;;4997075;28;20041;-73
2021/01/28 12:29:24;;;;;;;9.95;1.20;;;15.20;94.60;;;;;;4996389;28;20069;-72
2021/01/28 12:31:51;;;;;;;8.57;1.45;;;15.30;94.60;;;;;;4995766;28;20121;-73
2021/01/28 12:34:21;;;;;;;8.13;1.10;;;15.60;94.60;;;;;;4996820;28;20078;-73
2021/01/28 12:36:47;;;;;;;5.57;1.17;;;15.40;94.50;;;;;;4996330;28;20042;-72
2021/01/28 12:39:14;;;;;;;6.25;1.10;;;15.40;94.50;;;;;;4996763;28;20042;-72
2021/01/28 12:41:40;;;;;;;7.43;0.90;;;15.30;94.50;;;;;;4996874;28;20038;-72
2021/01/28 12:44:06;;;;;;;8.43;1.08;;;15.10;94.40;;;;;;4996717;28;20050;-73
2021/01/28 12:46:32;;;;;;;8.38;1.10;;;15.50;94.60;;;;;;4996466;28;20561;-73
2021/01/28 12:48:58;;;;;;;8.45;1.10;;;15.50;94.60;;;;;;4995906;28;20120;-73
2021/01/28 12:51:24;;;;;;;5.00;0.70;;;15.30;94.50;;;;;;4995792;28;20528;-73
2021/01/28 12:53:50;;;;;;;7.68;0.82;;;15.40;94.40;;;;;;4995933;28;20046;-73
2021/01/28 12:56:16;;;;;;;4.05;0.70;;;15.40;94.50;;;;;;4996256;28;20398;-73
2021/01/28 12:58:42;;;;;;;4.45;0.50;;;15.40;94.50;;;;;;4995922;28;20057;-73
2021/01/28 13:01:07;;;;;;;6.95;1.00;;;15.50;94.40;;;;;;4995842;28;20034;-73
2021/01/28 13:03:33;;;;;;;5.60;1.00;;;15.30;94.50;;;;;;4996340;28;20533;-73
2021/01/28 13:06:00;;;;;;;4.70;0.80;;;15.40;94.30;;;;;;4995899;28;20038;-73
2021/01/28 13:08:26;;;;;;;7.55;1.33;;;15.20;94.30;;;;;;4995738;28;20125;-73